createdAt,value
2019-01-21T00:01:33.504Z,102240.59
2019-01-21T00:06:41.414Z,102242.66
2019-01-21T00:11:49.660Z,102239.07
2019-01-21T00:16:59.492Z,102241.52
2019-01-21T00:22:10.246Z,102250.07
2019-01-21T00:27:19.608Z,102251.14
2019-01-21T00:32:32.099Z,102258.70
2019-01-21T00:37:47.206Z,102265.06
2019-01-21T00:42:54.501Z,102256.06
2019-01-21T00:48:02.464Z,102250.00
2019-01-21T00:53:13.004Z,102253.77
2019-01-21T00:58:22.308Z,102257.27
2019-01-21T01:03:33.061Z,102255.77
2019-01-21T01:08:42.917Z,102267.55
2019-01-21T01:13:52.678Z,102267.55
2019-01-21T01:18:59.891Z,102273.53
2019-01-21T01:24:16.783Z,102279.79
2019-01-21T01:29:25.289Z,102277.87
2019-01-21T01:34:37.573Z,102277.87
2019-01-21T01:39:50.119Z,102270.07
2019-01-21T01:45:00.206Z,102277.20
2019-01-21T01:50:10.582Z,102276.69
2019-01-21T01:55:22.230Z,102283.87
2019-01-21T02:00:31.114Z,102286.15
2019-01-21T02:05:42.631Z,102279.44
2019-01-21T02:10:56.939Z,102279.34
2019-01-21T02:16:07.636Z,102280.17
2019-01-21T02:21:16.876Z,102266.77
2019-01-21T02:26:28.833Z,102275.92
2019-01-21T02:32:05.388Z,102273.75
2019-01-21T02:37:45.191Z,102278.61
2019-01-21T02:43:34.857Z,102278.80
2019-01-21T02:48:54.064Z,102274.81
2019-01-21T02:54:19.854Z,102270.68
2019-01-21T03:00:05.337Z,102263.00
2019-01-21T03:05:49.479Z,102263.00
2019-01-21T03:11:34.127Z,102258.97
2019-01-21T03:17:26.821Z,102261.30
2019-01-21T03:23:14.665Z,102264.31
2019-01-21T03:29:13.481Z,102252.91
2019-01-21T03:34:53.387Z,102264.32
2019-01-21T03:40:38.087Z,102250.91
2019-01-21T03:46:22.217Z,102241.25
2019-01-21T03:52:20.496Z,102236.12
2019-01-21T03:57:45.676Z,102245.44
2019-01-21T04:03:35.664Z,102240.66
2019-01-21T04:09:16.040Z,102245.20
2019-01-21T04:14:37.902Z,102255.34
2019-01-21T04:19:58.523Z,102248.34
2019-01-21T04:25:47.589Z,102244.27
2019-01-21T04:31:33.705Z,102237.98
2019-01-21T04:37:17.134Z,102252.89
2019-01-21T04:42:47.374Z,102245.09
2019-01-21T04:48:06.527Z,102238.38
2019-01-21T04:53:47.944Z,102236.05
2019-01-21T04:59:17.191Z,102232.72
2019-01-21T05:04:49.332Z,102236.31
2019-01-21T05:10:22.989Z,102236.20
2019-01-21T05:16:02.894Z,102234.09
2019-01-21T05:21:47.672Z,102234.44
2019-01-21T05:27:32.453Z,102236.75
2019-01-21T05:34:49.314Z,102238.86
2019-01-21T05:40:22.920Z,102231.70
2019-01-21T05:46:01.462Z,102233.03
2019-01-21T05:51:31.925Z,102240.45
2019-01-21T05:57:17.993Z,102248.48
2019-01-21T06:03:04.756Z,102247.06
2019-01-21T06:08:58.731Z,102244.12
2019-01-21T06:14:40.588Z,102247.29
2019-01-21T06:20:11.087Z,102253.44
2019-01-21T06:25:53.956Z,102251.44
2019-01-21T06:31:36.231Z,102258.97
2019-01-21T06:37:07.641Z,102276.89
2019-01-21T06:42:50.405Z,102284.13
2019-01-21T06:48:57.061Z,102281.30
2019-01-21T06:54:49.889Z,102283.86
2019-01-21T07:00:35.473Z,102280.39
2019-01-21T07:06:38.888Z,102273.47
2019-01-21T07:12:17.125Z,102286.97
2019-01-21T07:17:43.867Z,102292.09
2019-01-21T07:23:39.749Z,102291.59
2019-01-21T07:29:36.385Z,102297.63
2019-01-21T07:35:17.190Z,102307.03
2019-01-21T07:41:17.671Z,102310.54
2019-01-21T07:46:39.017Z,102304.67
2019-01-21T07:52:25.896Z,102302.33
2019-01-21T07:58:11.109Z,102312.48
2019-01-21T08:04:14.417Z,102314.97
2019-01-21T08:10:15.184Z,102314.45
2019-01-21T08:16:17.316Z,102307.16
2019-01-21T08:22:02.290Z,102307.28
2019-01-21T08:27:36.074Z,102323.97
2019-01-21T08:33:04.748Z,102319.64
2019-01-21T08:38:40.518Z,102314.70
2019-01-21T08:44:35.593Z,102306.09
2019-01-21T08:50:04.271Z,102307.20
2019-01-21T08:55:34.001Z,102306.64
2019-01-21T09:01:04.807Z,102309.91
2019-01-21T09:06:35.305Z,102304.72
2019-01-21T09:12:24.063Z,102311.82
2019-01-21T09:18:01.307Z,102314.87
2019-01-21T09:23:31.630Z,102309.13
2019-01-21T09:29:13.573Z,102295.47
2019-01-21T09:35:13.033Z,102294.29
2019-01-21T09:40:55.122Z,102292.81
2019-01-21T09:46:26.596Z,102295.02
2019-01-21T09:51:37.223Z,102294.81
2019-01-21T09:56:46.223Z,102290.89
2019-01-21T10:02:01.325Z,102289.72
2019-01-21T10:07:36.843Z,102288.62
2019-01-21T10:13:23.053Z,102288.05
2019-01-21T10:19:19.269Z,102280.30
2019-01-21T10:24:48.318Z,102278.14
2019-01-21T10:30:15.243Z,102276.77
2019-01-21T10:35:55.122Z,102268.73
2019-01-21T10:41:37.571Z,102254.53
2019-01-21T10:47:07.302Z,102238.84
2019-01-21T10:52:52.841Z,102238.00
2019-01-21T10:58:32.644Z,102227.46
2019-01-21T11:04:11.430Z,102221.41
2019-01-21T11:09:40.360Z,102215.55
2019-01-21T11:15:44.053Z,102202.67
2019-01-21T11:21:16.871Z,102199.91
2019-01-21T11:26:59.463Z,102196.02
2019-01-21T11:32:49.060Z,102197.33
2019-01-21T11:38:20.427Z,102200.02
2019-01-21T11:43:58.690Z,102186.61
2019-01-21T11:49:49.989Z,102178.20
2019-01-21T11:55:20.861Z,102175.76
2019-01-21T12:00:39.869Z,102176.66
2019-01-21T12:06:03.047Z,102162.37
2019-01-21T12:11:53.176Z,102149.98
2019-01-21T12:17:33.737Z,102146.65
2019-01-21T12:23:16.294Z,102142.00
2019-01-21T12:29:05.629Z,102132.16
2019-01-21T12:34:45.064Z,102132.95
2019-01-21T12:40:23.528Z,102130.92
2019-01-21T12:45:48.168Z,102121.00
2019-01-21T12:51:33.032Z,102116.09
2019-01-21T12:57:05.492Z,102111.00
2019-01-21T13:02:50.429Z,102094.52
2019-01-21T13:08:28.907Z,102095.37
2019-01-21T13:14:36.016Z,102094.14
2019-01-21T13:20:38.492Z,102088.14
2019-01-21T13:26:20.506Z,102080.21
2019-01-21T13:31:55.979Z,102064.25
2019-01-21T13:37:38.663Z,102057.79
2019-01-21T13:42:57.652Z,102045.41
2019-01-21T13:48:43.782Z,102031.34
2019-01-21T13:54:30.372Z,102032.48
2019-01-21T14:00:32.012Z,102031.09
2019-01-21T14:06:23.342Z,102022.77
2019-01-21T14:11:57.041Z,102010.39
2019-01-21T14:17:50.022Z,102011.80
2019-01-21T14:23:10.465Z,102010.81
2019-01-21T14:28:50.496Z,102004.30
2019-01-21T14:34:18.407Z,102011.85
2019-01-21T14:39:40.194Z,102013.44
2019-01-21T14:45:39.815Z,102014.36
2019-01-21T14:51:22.453Z,102010.94
2019-01-21T14:57:23.997Z,102004.68
2019-01-21T15:02:45.556Z,101998.11
2019-01-21T15:08:19.583Z,101995.07
2019-01-21T15:14:18.549Z,101996.98
2019-01-21T15:19:52.207Z,101992.80
2019-01-21T15:25:38.244Z,101990.27
2019-01-21T15:31:20.479Z,101990.70
2019-01-21T15:37:04.388Z,101986.86
2019-01-21T15:42:49.132Z,101985.68
2019-01-21T15:48:44.327Z,101970.91
2019-01-21T15:54:16.106Z,101972.71
2019-01-21T16:00:05.186Z,101968.47
2019-01-21T16:05:44.993Z,101969.33
2019-01-21T16:11:37.828Z,101953.73
2019-01-21T16:17:32.359Z,101949.89
2019-01-21T16:23:17.068Z,101929.11
2019-01-21T16:28:50.726Z,101931.72
2019-01-21T16:34:58.823Z,101930.84
2019-01-21T16:40:32.629Z,101921.70
2019-01-21T16:45:47.427Z,101922.11
2019-01-21T16:50:55.035Z,101922.53
2019-01-21T16:56:02.697Z,101915.63
2019-01-21T17:01:12.865Z,101912.59
2019-01-21T17:06:21.853Z,101908.20
2019-01-21T17:11:33.671Z,101900.27
2019-01-21T17:16:46.283Z,101908.83
2019-01-21T17:21:55.343Z,101908.84
2019-01-21T17:27:06.625Z,101909.31
2019-01-21T17:32:15.545Z,101909.72
2019-01-21T17:37:22.189Z,101898.91
2019-01-21T17:42:36.994Z,101901.45
2019-01-21T17:47:46.337Z,101903.58
2019-01-21T17:52:54.487Z,101905.24
2019-01-21T17:58:06.032Z,101902.61
2019-01-21T18:03:17.828Z,101892.98
2019-01-21T18:08:28.618Z,101902.42
2019-01-21T18:13:35.960Z,101892.89
2019-01-21T18:18:45.775Z,101886.80
2019-01-21T18:23:54.776Z,101880.26
2019-01-21T18:29:03.797Z,101874.14
2019-01-21T18:34:13.779Z,101878.78
2019-01-21T18:39:27.814Z,101865.30
2019-01-21T18:44:42.332Z,101869.95
2019-01-21T18:49:56.508Z,101855.02
2019-01-21T18:55:10.219Z,101855.02
2019-01-21T19:00:22.307Z,101849.78
2019-01-21T19:05:34.885Z,101849.23
2019-01-21T19:10:48.561Z,101845.73
2019-01-21T19:15:57.178Z,101847.81
2019-01-21T19:21:02.818Z,101844.75
2019-01-21T19:26:11.898Z,101839.91
2019-01-21T19:31:24.583Z,101828.17
2019-01-21T19:36:38.415Z,101831.14
2019-01-21T19:41:50.148Z,101827.98
2019-01-21T19:47:01.832Z,101830.89
2019-01-21T19:52:11.065Z,101823.03
2019-01-21T19:57:17.141Z,101820.33
2019-01-21T20:02:31.624Z,101818.09
2019-01-21T20:07:45.092Z,101811.11
2019-01-21T20:12:58.599Z,101812.38
2019-01-21T20:18:07.569Z,101802.38
2019-01-21T20:23:21.260Z,101794.98
2019-01-21T20:28:29.716Z,101790.13
2019-01-21T20:33:39.816Z,101791.31
2019-01-21T20:38:53.514Z,101789.47
2019-01-21T20:44:06.405Z,101784.17
2019-01-21T20:49:15.737Z,101783.28
2019-01-21T20:54:28.464Z,101776.27
2019-01-21T20:59:48.463Z,101782.21
2019-01-21T21:04:58.406Z,101769.32
2019-01-21T21:10:10.908Z,101768.39
2019-01-21T21:15:25.060Z,101764.45
2019-01-21T21:20:36.946Z,101754.46
2019-01-21T21:25:48.844Z,101751.81
2019-01-21T21:30:58.531Z,101749.95
2019-01-21T21:36:16.689Z,101742.03
2019-01-21T21:41:31.486Z,101728.10
2019-01-21T21:46:44.168Z,101726.78
2019-01-21T21:51:54.990Z,101716.75
2019-01-21T21:57:07.600Z,101712.45
2019-01-21T22:02:16.039Z,101701.18
2019-01-21T22:07:24.248Z,101690.41
2019-01-21T22:12:38.569Z,101683.42
2019-01-21T22:17:53.005Z,101681.28
2019-01-21T22:23:06.564Z,101673.94
2019-01-21T22:28:14.666Z,101664.89
2019-01-21T22:33:25.415Z,101659.19
2019-01-21T22:38:35.729Z,101659.44
2019-01-21T22:43:42.777Z,101659.44
2019-01-21T22:48:57.714Z,101646.55
2019-01-21T22:54:09.228Z,101642.69
2019-01-21T22:59:17.998Z,101637.94
2019-01-21T23:04:29.690Z,101634.38
2019-01-21T23:09:42.386Z,101606.15
2019-01-21T23:14:57.842Z,101606.15
2019-01-21T23:20:09.584Z,101604.08
2019-01-21T23:25:21.226Z,101600.14
2019-01-21T23:30:31.119Z,101596.13
2019-01-21T23:35:39.765Z,101590.47
2019-01-21T23:40:54.466Z,101586.17
2019-01-21T23:46:03.846Z,101582.19
2019-01-21T23:51:23.056Z,101555.45
2019-01-21T23:56:36.742Z,101566.64
